Time;durP1;ratioP1;P1;durP2;ratioP2;P2;SDS_P1;SDS_P2;PMS_P1;PMS_P2;Temp;Humidity;BMP_temperature;BMP_pressure;BME280_temperature;BME280_humidity;BME280_pressure;Samples;Min_cycle;Max_cycle;Signal;HPM_P1;HPM_P2
2022/05/30 00:01:26;;;;;;;2.08;1.27;;;7.50;99.90;;;;;;5085649;28;20040;-83
2022/05/30 00:03:52;;;;;;;2.38;1.42;;;7.50;99.90;;;;;;5081683;28;20033;-81
2022/05/30 00:06:20;;;;;;;1.48;1.30;;;7.40;99.90;;;;;;5089798;28;20029;-81
2022/05/30 00:08:46;;;;;;;1.65;1.10;;;7.40;99.90;;;;;;5090021;28;20078;-82
2022/05/30 00:11:14;;;;;;;1.20;1.10;;;7.40;99.90;;;;;;5068475;28;20024;-81
2022/05/30 00:13:40;;;;;;;1.33;1.15;;;7.30;99.90;;;;;;5068964;28;20068;-82
2022/05/30 00:16:09;;;;;;;1.38;1.27;;;7.20;99.90;;;;;;5069276;28;20100;-82
2022/05/30 00:18:36;;;;;;;2.10;1.58;;;7.20;99.90;;;;;;5069346;28;20021;-82
2022/05/30 00:21:02;;;;;;;1.65;1.40;;;7.10;99.90;;;;;;5069089;28;20032;-84
2022/05/30 00:23:28;;;;;;;3.72;1.60;;;7.20;99.90;;;;;;5069063;28;20021;-82
2022/05/30 00:25:53;;;;;;;1.73;1.20;;;7.20;99.90;;;;;;5069182;28;20040;-82
2022/05/30 00:28:20;;;;;;;3.05;1.42;;;7.20;99.90;;;;;;5076387;28;20175;-83
2022/05/30 00:30:47;;;;;;;1.30;1.00;;;7.10;99.90;;;;;;5075751;28;20127;-82
2022/05/30 00:33:13;;;;;;;1.25;1.15;;;7.10;99.90;;;;;;5050454;28;20021;-83
2022/05/30 00:35:41;;;;;;;1.83;1.10;;;7.00;99.90;;;;;;5066709;28;20380;-84
2022/05/30 00:38:07;;;;;;;1.65;1.25;;;7.00;99.90;;;;;;5051469;28;20021;-82
2022/05/30 00:40:35;;;;;;;2.80;1.50;;;6.90;99.90;;;;;;5050504;28;20049;-82
2022/05/30 00:43:30;;;;;;;0.98;0.98;;;6.90;99.90;;;;;;5047035;28;20025;-82
2022/05/30 00:45:58;;;;;;;1.30;1.20;;;6.80;99.90;;;;;;5066166;28;20025;-83
2022/05/30 00:48:31;;;;;;;1.05;1.00;;;6.80;99.90;;;;;;5048427;28;20040;-82
2022/05/30 00:51:04;;;;;;;1.23;1.10;;;6.90;99.90;;;;;;5069091;28;20109;-81
2022/05/30 00:53:33;;;;;;;1.00;1.00;;;6.80;99.90;;;;;;5068958;28;20032;-82
2022/05/30 00:56:02;;;;;;;1.00;0.80;;;6.80;99.90;;;;;;5066714;28;20029;-81
2022/05/30 00:58:33;;;;;;;1.48;1.13;;;6.70;99.90;;;;;;5059656;28;20021;-82
2022/05/30 01:00:59;;;;;;;1.20;0.88;;;6.70;99.90;;;;;;5064927;28;20489;-82
2022/05/30 01:08:54;;;;;;;1.15;1.05;;;6.80;99.90;;;;;;5062579;28;20055;-84
2022/05/30 01:11:20;;;;;;;0.88;0.88;;;6.70;99.90;;;;;;5061328;28;20099;-85
2022/05/30 01:13:46;;;;;;;1.42;1.25;;;6.70;99.90;;;;;;5068383;28;20040;-82
2022/05/30 01:16:12;;;;;;;1.20;1.10;;;6.70;99.90;;;;;;5051096;28;20037;-81
2022/05/30 01:18:44;;;;;;;1.25;1.15;;;6.60;99.90;;;;;;5068235;28;20032;-82
2022/05/30 01:21:35;;;;;;;1.10;1.00;;;6.60;99.90;;;;;;5050488;28;20021;-84
2022/05/30 01:24:14;;;;;;;1.33;1.23;;;6.50;99.90;;;;;;5045204;28;20136;-82
2022/05/30 01:27:04;;;;;;;1.15;1.05;;;6.50;99.90;;;;;;5053489;28;20082;-82
2022/05/30 01:29:48;;;;;;;1.30;1.20;;;6.50;99.90;;;;;;5061307;28;20373;-84
2022/05/30 01:32:21;;;;;;;0.95;0.95;;;6.50;99.90;;;;;;5048875;28;20033;-81
2022/05/30 01:34:47;;;;;;;1.20;0.98;;;6.50;99.90;;;;;;5050647;28;20520;-83
2022/05/30 01:37:13;;;;;;;1.67;1.20;;;6.50;99.90;;;;;;5068198;28;20033;-82
2022/05/30 01:39:38;;;;;;;0.90;0.90;;;6.50;99.90;;;;;;5065737;28;20054;-83
2022/05/30 01:42:05;;;;;;;2.55;1.27;;;6.50;99.90;;;;;;5061614;28;20025;-82
2022/05/30 01:44:31;;;;;;;1.25;1.13;;;6.40;99.90;;;;;;5041767;28;20032;-84
2022/05/30 01:46:57;;;;;;;1.23;1.00;;;6.40;99.90;;;;;;5064400;28;20392;-82
2022/05/30 01:49:23;;;;;;;2.20;1.55;;;6.40;99.90;;;;;;5059920;28;20036;-83
2022/05/30 01:51:52;;;;;;;2.50;1.20;;;6.30;99.90;;;;;;5060535;28;20028;-82
2022/05/30 01:54:18;;;;;;;1.88;1.38;;;6.30;99.90;;;;;;5060956;28;20043;-83
2022/05/30 01:56:44;;;;;;;1.02;1.02;;;6.40;99.90;;;;;;5062030;28;20473;-83
2022/05/30 01:59:10;;;;;;;1.15;1.05;;;6.30;99.90;;;;;;5072412;28;20021;-83
2022/05/30 02:01:39;;;;;;;1.15;0.90;;;6.30;99.90;;;;;;5071529;28;20055;-82
2022/05/30 02:04:05;;;;;;;1.40;1.30;;;6.40;99.90;;;;;;5072610;28;20047;-82
2022/05/30 02:06:32;;;;;;;0.80;0.80;;;6.30;99.90;;;;;;5053956;28;20025;-83
2022/05/30 02:08:58;;;;;;;1.10;1.00;;;6.30;99.90;;;;;;5052670;28;20039;-84
2022/05/30 02:11:24;;;;;;;1.20;1.10;;;6.40;99.90;;;;;;5053929;28;20048;-82
2022/05/30 02:13:50;;;;;;;0.95;0.80;;;6.40;99.90;;;;;;5051820;28;20021;-83
2022/05/30 02:19:18;;;;;;;1.10;0.93;;;6.40;99.90;;;;;;5024120;28;20430;-83
2022/05/30 02:21:43;;;;;;;0.90;0.90;;;6.40;99.90;;;;;;5033559;28;20357;-82
2022/05/30 02:24:12;;;;;;;1.95;0.80;;;6.40;99.90;;;;;;5061744;28;20104;-82
2022/05/30 02:26:38;;;;;;;0.95;0.95;;;6.40;99.90;;;;;;5049368;28;20046;-80
2022/05/30 02:29:04;;;;;;;1.20;0.80;;;6.40;99.90;;;;;;5076452;28;20025;-82
2022/05/30 02:31:30;;;;;;;1.10;1.00;;;6.50;99.90;;;;;;5076270;28;20028;-84
2022/05/30 02:36:41;;;;;;;1.23;1.00;;;6.50;99.90;;;;;;5077066;28;20039;-82
2022/05/30 02:39:21;;;;;;;0.80;0.80;;;6.60;99.90;;;;;;5080569;28;20388;-82
2022/05/30 02:41:48;;;;;;;1.17;1.10;;;6.60;99.90;;;;;;5058595;28;20104;-81
2022/05/30 02:44:19;;;;;;;1.10;1.05;;;6.60;99.90;;;;;;5041330;28;20400;-83
2022/05/30 02:46:49;;;;;;;1.10;1.00;;;6.60;99.90;;;;;;5041962;28;20074;-83
2022/05/30 02:49:15;;;;;;;0.93;0.85;;;6.50;99.90;;;;;;5041928;28;20029;-82
2022/05/30 02:51:42;;;;;;;0.80;0.80;;;6.50;99.90;;;;;;5041929;28;20236;-84
2022/05/30 02:54:08;;;;;;;1.33;1.23;;;6.40;99.90;;;;;;5060286;28;20021;-84
2022/05/30 02:56:33;;;;;;;1.65;1.13;;;6.40;99.90;;;;;;5044691;28;20025;-80
2022/05/30 02:59:00;;;;;;;1.88;1.38;;;6.40;99.90;;;;;;5047787;28;20048;-83
2022/05/30 03:01:27;;;;;;;1.30;1.20;;;6.30;99.90;;;;;;5059722;28;20123;-82
2022/05/30 03:03:53;;;;;;;3.53;1.40;;;6.30;99.90;;;;;;5061121;28;20041;-82
2022/05/30 03:06:18;;;;;;;1.30;1.20;;;6.30;99.90;;;;;;5058215;28;20121;-82
2022/05/30 03:08:44;;;;;;;1.40;1.30;;;6.40;99.90;;;;;;5069906;28;20089;-83
2022/05/30 03:11:11;;;;;;;1.35;1.25;;;6.30;99.90;;;;;;5076549;28;20040;-83
2022/05/30 03:13:38;;;;;;;1.15;1.08;;;6.30;99.90;;;;;;5060073;28;20120;-83
2022/05/30 03:16:04;;;;;;;1.08;1.05;;;6.30;99.90;;;;;;5054960;28;20040;-85
2022/05/30 03:18:30;;;;;;;1.27;1.13;;;6.30;99.90;;;;;;5054439;28;20565;-82
2022/05/30 03:20:56;;;;;;;0.98;0.80;;;6.30;99.90;;;;;;5049953;28;20029;-83
2022/05/30 03:23:22;;;;;;;1.17;0.90;;;6.30;99.90;;;;;;5069131;28;20028;-83
2022/05/30 03:25:47;;;;;;;0.75;0.75;;;6.30;99.90;;;;;;5060287;28;20016;-83
2022/05/30 03:28:14;;;;;;;1.02;1.00;;;6.30;99.90;;;;;;5083736;28;20069;-83
2022/05/30 03:30:40;;;;;;;1.48;1.15;;;6.40;99.90;;;;;;5047571;28;20036;-83
2022/05/30 03:33:08;;;;;;;1.33;1.00;;;6.40;99.90;;;;;;5069239;28;20017;-82
2022/05/30 03:35:35;;;;;;;1.25;1.10;;;6.40;99.90;;;;;;5070382;28;20047;-80
2022/05/30 03:38:02;;;;;;;1.20;1.10;;;6.40;99.90;;;;;;5054547;28;20036;-79
2022/05/30 03:40:28;;;;;;;1.08;0.93;;;6.40;99.90;;;;;;5050757;28;20025;-81
2022/05/30 03:42:53;;;;;;;0.90;0.90;;;6.40;99.90;;;;;;5048048;28;20024;-81
2022/05/30 03:45:20;;;;;;;1.05;0.95;;;6.50;99.90;;;;;;5050933;28;20025;-81
2022/05/30 03:47:47;;;;;;;1.00;0.95;;;6.60;99.90;;;;;;5056006;28;20077;-81
2022/05/30 03:50:16;;;;;;;0.80;0.80;;;6.60;99.90;;;;;;5052683;28;20021;-81
2022/05/30 03:52:42;;;;;;;1.00;0.90;;;6.70;99.90;;;;;;5066534;28;20537;-80
2022/05/30 03:55:13;;;;;;;0.75;0.63;;;6.80;99.90;;;;;;5065695;28;20055;-81
2022/05/30 03:57:40;;;;;;;1.23;0.80;;;6.90;99.90;;;;;;5078752;28;20036;-80
2022/05/30 04:00:12;;;;;;;0.98;0.75;;;7.10;99.90;;;;;;5072364;28;20075;-80
2022/05/30 04:02:37;;;;;;;0.75;0.75;;;7.10;99.90;;;;;;5073855;28;20115;-79
2022/05/30 04:05:04;;;;;;;0.80;0.60;;;7.30;99.90;;;;;;5073067;28;20025;-81
2022/05/30 04:07:30;;;;;;;0.77;0.77;;;7.40;99.90;;;;;;5090537;28;20032;-80
2022/05/30 04:09:55;;;;;;;0.82;0.82;;;7.50;99.90;;;;;;5070931;28;20048;-80
2022/05/30 04:12:22;;;;;;;0.93;0.82;;;7.70;99.90;;;;;;5052190;28;20039;-79
2022/05/30 04:14:55;;;;;;;0.68;0.60;;;7.70;99.90;;;;;;5072178;28;20086;-81
2022/05/30 04:17:22;;;;;;;0.63;0.60;;;7.80;99.90;;;;;;5054193;28;20028;-80
2022/05/30 04:19:48;;;;;;;1.00;0.80;;;7.90;99.90;;;;;;5072400;28;20021;-80
2022/05/30 04:22:15;;;;;;;0.98;0.98;;;8.00;99.90;;;;;;5069742;28;20021;-79
2022/05/30 04:24:40;;;;;;;1.33;1.23;;;8.00;99.90;;;;;;5069547;28;20025;-80
2022/05/30 04:27:06;;;;;;;1.23;1.13;;;8.10;99.90;;;;;;5076761;28;20357;-82
2022/05/30 04:29:32;;;;;;;1.35;1.08;;;8.20;99.90;;;;;;5054301;28;20029;-82
2022/05/30 04:32:00;;;;;;;1.13;0.75;;;8.30;99.90;;;;;;5051492;28;20036;-81
2022/05/30 04:34:25;;;;;;;1.13;1.05;;;8.30;99.90;;;;;;5051287;28;20144;-79
2022/05/30 04:36:51;;;;;;;0.82;0.80;;;8.30;99.90;;;;;;5047981;28;20056;-80
2022/05/30 04:39:17;;;;;;;6.00;1.20;;;8.30;99.90;;;;;;5061516;28;20076;-81
2022/05/30 04:41:43;;;;;;;0.90;0.80;;;8.30;99.90;;;;;;5043409;28;20021;-80
2022/05/30 04:44:09;;;;;;;1.42;0.90;;;8.10;99.90;;;;;;5062792;28;20087;-80
2022/05/30 04:46:34;;;;;;;1.67;1.00;;;8.20;99.90;;;;;;5062232;28;20043;-81
2022/05/30 04:49:00;;;;;;;1.25;0.82;;;8.20;99.90;;;;;;5042384;28;20032;-81
2022/05/30 04:51:27;;;;;;;0.70;0.70;;;8.20;99.90;;;;;;5040540;28;20055;-80
2022/05/30 04:53:53;;;;;;;2.60;0.68;;;8.20;99.90;;;;;;5057631;28;20036;-81
2022/05/30 04:56:19;;;;;;;0.60;0.60;;;8.30;99.90;;;;;;5065504;28;20440;-81
2022/05/30 04:58:49;;;;;;;0.73;0.50;;;8.40;99.90;;;;;;5071404;28;20101;-81
2022/05/30 05:01:15;;;;;;;1.48;0.68;;;8.60;99.90;;;;;;5049349;28;20216;-82
2022/05/30 05:03:43;;;;;;;0.85;0.55;;;8.80;99.90;;;;;;5042666;28;20090;-81
2022/05/30 05:06:11;;;;;;;1.17;1.02;;;9.10;99.90;;;;;;5060223;28;20389;-81
2022/05/30 05:08:41;;;;;;;2.97;1.00;;;10.30;99.90;;;;;;5042283;28;20093;-80
2022/05/30 05:11:16;;;;;;;3.13;0.85;;;12.80;95.30;;;;;;5059730;28;20081;-81
2022/05/30 05:13:42;;;;;;;0.73;0.65;;;15.00;88.40;;;;;;5059988;28;20029;-82
2022/05/30 05:16:08;;;;;;;0.70;0.70;;;17.20;77.10;;;;;;5060510;28;20029;-82
2022/05/30 05:18:34;;;;;;;0.45;0.45;;;18.60;69.50;;;;;;5059250;28;20114;-81
2022/05/30 05:21:00;;;;;;;0.43;0.40;;;20.40;66.50;;;;;;5042076;28;20017;-81
2022/05/30 05:23:26;;;;;;;0.90;0.65;;;22.10;58.20;;;;;;5059657;28;20025;-82
2022/05/30 05:25:52;;;;;;;0.40;0.40;;;23.50;54.70;;;;;;5064042;28;20031;-82
2022/05/30 05:28:17;;;;;;;0.73;0.57;;;25.10;51.80;;;;;;5050121;28;20029;-83
2022/05/30 05:30:43;;;;;;;0.50;0.50;;;26.50;47.80;;;;;;5045089;28;20053;-80
2022/05/30 05:33:12;;;;;;;1.10;0.40;;;26.60;45.30;;;;;;5041582;28;20025;-82
2022/05/30 05:35:42;;;;;;;2.33;0.90;;;26.30;44.20;;;;;;5058693;28;20025;-82
2022/05/30 05:38:09;;;;;;;0.85;0.50;;;25.20;43.60;;;;;;5044615;28;20036;-82
2022/05/30 05:40:42;;;;;;;0.50;0.50;;;24.50;45.70;;;;;;5059832;28;20071;-82
2022/05/30 05:43:08;;;;;;;0.70;0.70;;;25.20;45.40;;;;;;5041240;28;20491;-80
2022/05/30 05:45:39;;;;;;;0.93;0.55;;;26.30;44.20;;;;;;5059615;28;20021;-82
2022/05/30 05:48:06;;;;;;;0.63;0.63;;;27.10;42.90;;;;;;5063421;28;20013;-82
2022/05/30 05:50:32;;;;;;;1.15;0.60;;;27.60;41.80;;;;;;5075123;28;20029;-81
2022/05/30 05:52:58;;;;;;;0.60;0.60;;;28.00;41.10;;;;;;5074254;28;20017;-81
2022/05/30 05:55:24;;;;;;;0.60;0.50;;;28.20;41.10;;;;;;5058068;28;20524;-81
2022/05/30 05:57:50;;;;;;;1.75;0.98;;;27.70;40.80;;;;;;5047234;22;20493;-80
2022/05/30 06:00:16;;;;;;;0.68;0.60;;;26.90;40.50;;;;;;5072159;28;20033;-79
2022/05/30 06:02:42;;;;;;;0.55;0.55;;;27.20;41.90;;;;;;5063679;28;20061;-79
2022/05/30 06:05:09;;;;;;;1.20;0.50;;;28.10;40.50;;;;;;5040835;28;20075;-79
2022/05/30 06:07:36;;;;;;;0.57;0.57;;;27.70;41.20;;;;;;5058641;28;20030;-76
2022/05/30 06:10:04;;;;;;;0.60;0.60;;;27.80;39.50;;;;;;5055193;28;20044;-78
2022/05/30 06:12:30;;;;;;;0.38;0.35;;;26.80;41.00;;;;;;5017997;28;20022;-79
2022/05/30 06:14:55;;;;;;;2.30;1.00;;;26.70;41.50;;;;;;5019020;28;20567;-78
2022/05/30 06:17:21;;;;;;;0.70;0.55;;;27.70;41.00;;;;;;5037704;28;20033;-78
2022/05/30 06:19:47;;;;;;;0.50;0.50;;;28.90;39.60;;;;;;5038413;28;20102;-78
2022/05/30 06:22:13;;;;;;;1.80;0.73;;;29.00;39.70;;;;;;5036486;28;20018;-78
2022/05/30 06:24:39;;;;;;;0.93;0.70;;;28.80;39.50;;;;;;5037378;28;20022;-79
2022/05/30 06:27:06;;;;;;;0.57;0.47;;;28.70;38.80;;;;;;5048227;28;20036;-79
2022/05/30 06:29:32;;;;;;;0.50;0.50;;;28.10;39.40;;;;;;5052167;28;20097;-80
2022/05/30 06:31:58;;;;;;;0.80;0.80;;;28.10;38.60;;;;;;5060471;28;20056;-80
2022/05/30 06:34:24;;;;;;;0.60;0.60;;;27.60;39.20;;;;;;5037800;28;20028;-79
2022/05/30 06:36:50;;;;;;;1.08;0.82;;;27.50;40.80;;;;;;5054580;28;20064;-78
2022/05/30 06:39:17;;;;;;;0.90;0.90;;;27.80;39.50;;;;;;5057011;28;20040;-78
2022/05/30 06:41:44;;;;;;;1.42;0.70;;;27.20;39.60;;;;;;5057096;28;20017;-79
2022/05/30 06:44:10;;;;;;;0.68;0.68;;;26.50;40.90;;;;;;5059995;28;20017;-78
2022/05/30 06:46:37;;;;;;;4.05;1.63;;;26.80;40.90;;;;;;5026630;28;20025;-78
2022/05/30 06:49:05;;;;;;;1.10;1.00;;;26.30;40.00;;;;;;5038430;28;20040;-78
2022/05/30 06:51:34;;;;;;;2.33;1.70;;;25.20;42.30;;;;;;5035996;28;20021;-79
2022/05/30 06:54:01;;;;;;;3.05;1.00;;;25.00;42.70;;;;;;5017592;28;20029;-78
2022/05/30 06:56:33;;;;;;;4.82;1.20;;;24.30;43.10;;;;;;5036245;28;20091;-78
2022/05/30 06:59:00;;;;;;;;;;;24.50;44.10;;;;;;5046153;28;20017;-79
2022/05/30 07:01:32;;;;;;;1.33;1.23;;;25.00;44.10;;;;;;5056717;28;19912;-78
2022/05/30 07:03:57;;;;;;;;;;;25.50;42.30;;;;;;5041272;28;20386;-77
2022/05/30 07:06:36;;;;;;;2.42;1.08;;;25.40;42.10;;;;;;5033874;28;19905;-78
2022/05/30 07:09:04;;;;;;;2.05;1.85;;;24.20;44.90;;;;;;5034309;28;20107;-78
2022/05/30 07:11:29;;;;;;;1.30;0.90;;;24.50;43.60;;;;;;5016405;28;20030;-79
2022/05/30 07:13:55;;;;;;;1.45;1.35;;;23.00;45.00;;;;;;5036044;28;20341;-77
2022/05/30 07:16:24;;;;;;;2.60;1.35;;;20.30;49.10;;;;;;5034673;28;20541;-78
2022/05/30 07:18:49;;;;;;;2.70;1.25;;;17.80;53.90;;;;;;5036789;28;20041;-79
2022/05/30 07:21:16;;;;;;;2.33;1.00;;;16.10;58.90;;;;;;5034141;28;20462;-79
2022/05/30 07:23:42;;;;;;;4.90;1.85;;;15.00;62.70;;;;;;5043700;28;20018;-79
2022/05/30 07:26:12;;;;;;;1.73;1.48;;;14.30;65.30;;;;;;5048092;28;20474;-78
2022/05/30 07:28:38;;;;;;;1.73;1.63;;;13.80;67.20;;;;;;5043837;28;20033;-77
2022/05/30 07:31:06;;;;;;;1.48;1.35;;;13.30;69.40;;;;;;5054260;28;20086;-77
2022/05/30 07:33:33;;;;;;;1.10;1.00;;;13.10;70.90;;;;;;5054724;28;20029;-78
2022/05/30 07:36:00;;;;;;;1.25;1.15;;;13.10;71.80;;;;;;5038647;28;20021;-78
2022/05/30 07:38:26;;;;;;;0.70;0.70;;;13.30;72.50;;;;;;5052935;28;20086;-79
2022/05/30 07:40:52;;;;;;;1.70;1.20;;;13.40;73.40;;;;;;5035302;28;20029;-78
2022/05/30 07:43:18;;;;;;;1.67;1.17;;;13.40;72.70;;;;;;5038129;28;20022;-79
2022/05/30 07:45:44;;;;;;;3.00;1.15;;;13.30;72.50;;;;;;5035020;28;20456;-79
2022/05/30 07:48:10;;;;;;;0.98;0.80;;;13.40;73.30;;;;;;5031226;28;20020;-80
2022/05/30 07:50:37;;;;;;;1.13;1.10;;;13.60;73.10;;;;;;5051540;28;20022;-80
2022/05/30 07:53:06;;;;;;;1.42;1.25;;;13.80;71.10;;;;;;5051551;28;20021;-80
2022/05/30 07:55:32;;;;;;;2.38;1.60;;;13.90;71.30;;;;;;5053469;28;20093;-79
2022/05/30 07:58:04;;;;;;;3.50;1.45;;;13.90;70.80;;;;;;5068059;28;20017;-80
2022/05/30 08:00:33;;;;;;;4.78;1.30;;;13.90;72.20;;;;;;5046787;28;20021;-80
2022/05/30 08:02:59;;;;;;;2.38;1.40;;;14.00;73.40;;;;;;5039321;28;20482;-79
2022/05/30 08:05:25;;;;;;;1.48;1.38;;;14.10;72.40;;;;;;5039516;28;20033;-79
2022/05/30 08:07:52;;;;;;;0.90;0.90;;;14.20;71.10;;;;;;5023082;28;20076;-79
2022/05/30 08:10:19;;;;;;;2.05;0.70;;;14.30;70.80;;;;;;5039134;28;20087;-78
2022/05/30 08:12:47;;;;;;;2.00;1.17;;;14.40;70.50;;;;;;5039552;28;20033;-78
2022/05/30 08:15:13;;;;;;;3.60;1.33;;;14.40;69.10;;;;;;5043821;28;20037;-80
2022/05/30 08:17:40;;;;;;;1.75;0.95;;;14.20;69.70;;;;;;5044353;28;20025;-78
2022/05/30 08:20:08;;;;;;;1.67;1.10;;;14.20;70.50;;;;;;5043646;28;20081;-77
2022/05/30 08:22:34;;;;;;;4.15;1.10;;;14.10;71.00;;;;;;5044868;28;20045;-79
2022/05/30 08:25:03;;;;;;;3.97;1.20;;;14.10;71.50;;;;;;5045346;28;20053;-78
2022/05/30 08:27:29;;;;;;;2.97;1.42;;;14.10;70.80;;;;;;5050854;28;20029;-79
2022/05/30 08:29:56;;;;;;;1.08;0.80;;;14.30;70.30;;;;;;5047928;28;20033;-78
2022/05/30 08:32:23;;;;;;;2.50;0.95;;;14.70;68.40;;;;;;5039887;28;20036;-79
2022/05/30 08:34:49;;;;;;;1.40;1.30;;;15.00;66.80;;;;;;5039896;28;20028;-79
2022/05/30 08:37:14;;;;;;;1.02;0.90;;;15.10;65.70;;;;;;5043844;28;20029;-79
2022/05/30 08:42:29;;;;;;;2.28;1.20;;;15.20;66.70;;;;;;5043178;28;20525;-78
2022/05/30 08:44:56;;;;;;;1.92;0.90;;;15.30;65.70;;;;;;5031301;28;20092;-78
2022/05/30 08:47:41;;;;;;;2.58;0.82;;;15.30;65.80;;;;;;5044537;28;20369;-80
2022/05/30 08:51:03;;;;;;;1.55;1.02;;;15.40;65.90;;;;;;5040994;28;20057;-78
2022/05/30 08:53:35;;;;;;;3.70;0.85;;;15.60;64.80;;;;;;4953235;29;20496;-79
2022/05/30 08:56:21;;;;;;;5.15;1.85;;;15.80;63.10;;;;;;5030118;28;20045;-78
2022/05/30 08:59:06;;;;;;;0.88;0.88;;;15.80;62.70;;;;;;5044769;28;20083;-78
2022/05/30 09:01:45;;;;;;;1.35;0.90;;;15.60;64.20;;;;;;5049388;28;20037;-80
2022/05/30 09:04:36;;;;;;;1.20;0.90;;;16.00;63.90;;;;;;5050324;28;20030;-78
2022/05/30 09:07:06;;;;;;;0.68;0.57;;;16.40;61.90;;;;;;5050312;28;20088;-79
2022/05/30 09:10:03;;;;;;;0.77;0.63;;;16.90;60.50;;;;;;5047316;28;20025;-78
2022/05/30 09:12:36;;;;;;;1.30;1.00;;;17.10;58.60;;;;;;5007149;28;20124;-79
2022/05/30 09:15:14;;;;;;;2.83;1.13;;;17.00;58.00;;;;;;5045123;28;20021;-80
2022/05/30 09:17:45;;;;;;;1.60;0.80;;;16.80;58.80;;;;;;5058057;28;20112;-79
2022/05/30 09:20:17;;;;;;;1.50;1.23;;;16.60;58.20;;;;;;5066768;28;20033;-81
2022/05/30 09:22:43;;;;;;;2.20;1.10;;;16.40;59.90;;;;;;5070411;28;20080;-80
2022/05/30 09:27:59;;;;;;;2.58;1.05;;;16.90;58.70;;;;;;5037514;28;20033;-79
2022/05/30 09:30:34;;;;;;;0.77;0.70;;;17.20;56.90;;;;;;5037043;28;20025;-78
2022/05/30 09:33:16;;;;;;;1.10;0.68;;;17.70;57.00;;;;;;5036829;28;20025;-79
2022/05/30 09:35:42;;;;;;;1.35;1.05;;;18.30;55.30;;;;;;5038684;28;20064;-79
2022/05/30 09:38:16;;;;;;;1.55;1.17;;;18.40;55.40;;;;;;5022045;28;20037;-78
2022/05/30 09:40:46;;;;;;;7.88;1.67;;;18.30;55.00;;;;;;5037495;28;20028;-80
2022/05/30 09:43:52;;;;;;;2.10;1.20;;;17.50;56.00;;;;;;5027156;28;20021;-79
2022/05/30 09:46:33;;;;;;;1.58;1.33;;;17.10;55.90;;;;;;5039721;28;20072;-77
2022/05/30 09:49:07;;;;;;;2.05;0.60;;;17.00;57.00;;;;;;5057888;28;20029;-79
2022/05/30 09:52:00;;;;;;;2.95;1.00;;;17.30;57.80;;;;;;5039127;28;20025;-78
2022/05/30 09:54:26;;;;;;;1.63;1.20;;;18.10;54.80;;;;;;5048120;28;20037;-78
2022/05/30 09:57:13;;;;;;;2.25;0.90;;;18.10;53.20;;;;;;5056497;28;20029;-78
2022/05/30 09:59:42;;;;;;;1.85;1.17;;;18.20;54.30;;;;;;5039158;28;20041;-78
2022/05/30 10:02:29;;;;;;;2.05;0.93;;;18.20;52.50;;;;;;5037572;28;20040;-78
2022/05/30 10:05:21;;;;;;;1.95;0.95;;;18.20;52.70;;;;;;5036949;28;20104;-79
2022/05/30 10:08:13;;;;;;;1.08;0.98;;;17.90;53.60;;;;;;5037245;28;20034;-80
2022/05/30 10:10:46;;;;;;;1.45;0.93;;;17.80;53.70;;;;;;5039123;28;20053;-79
2022/05/30 10:13:12;;;;;;;2.58;1.00;;;18.00;53.50;;;;;;5044743;28;20029;-79
2022/05/30 10:15:41;;;;;;;3.03;1.40;;;18.30;51.00;;;;;;5051384;28;20043;-79
2022/05/30 10:18:13;;;;;;;3.38;1.25;;;18.60;52.10;;;;;;5017370;28;20025;-77
2022/05/30 10:20:55;;;;;;;1.52;1.30;;;18.50;52.50;;;;;;5037587;28;20453;-79
2022/05/30 10:30:47;;;;;;;1.55;1.13;;;19.40;51.40;;;;;;5030524;28;20521;-76
2022/05/30 10:33:40;;;;;;;2.17;1.33;;;19.30;51.30;;;;;;4974921;28;20050;-79
2022/05/30 10:36:41;;;;;;;1.52;1.30;;;18.40;52.90;;;;;;4974277;28;20466;-80
2022/05/30 10:39:22;;;;;;;1.98;1.10;;;17.70;54.20;;;;;;5011422;28;20473;-79
2022/05/30 10:41:54;;;;;;;2.70;1.10;;;17.40;55.70;;;;;;5016234;28;20109;-79
2022/05/30 10:44:29;;;;;;;2.00;1.30;;;16.90;56.60;;;;;;5047631;28;20072;-80
2022/05/30 10:47:16;;;;;;;0.95;0.70;;;16.60;57.10;;;;;;5039469;28;20025;-80
2022/05/30 10:49:50;;;;;;;3.33;1.15;;;16.60;58.00;;;;;;5039734;28;20026;-80
2022/05/30 10:52:18;;;;;;;1.48;0.88;;;16.80;57.60;;;;;;5044910;28;20482;-78
2022/05/30 10:54:53;;;;;;;1.08;0.90;;;17.00;56.70;;;;;;5038841;28;20033;-78
2022/05/30 10:57:24;;;;;;;1.45;0.90;;;17.30;54.70;;;;;;5036791;28;20032;-79
2022/05/30 11:00:04;;;;;;;3.20;0.88;;;17.50;53.10;;;;;;5038505;28;20021;-78
2022/05/30 11:02:42;;;;;;;2.00;0.90;;;18.10;50.80;;;;;;5018689;28;20040;-78
2022/05/30 11:05:15;;;;;;;2.63;0.90;;;18.40;50.20;;;;;;5036537;28;20040;-79
2022/05/30 11:08:00;;;;;;;1.23;0.88;;;18.80;49.30;;;;;;5035231;28;20496;-78
2022/05/30 11:10:56;;;;;;;1.27;0.88;;;19.10;48.80;;;;;;5018340;28;20059;-78
2022/05/30 11:14:12;;;;;;;1.33;1.13;;;19.50;49.30;;;;;;5041300;28;20539;-79
2022/05/30 11:16:57;;;;;;;2.00;1.33;;;20.10;47.30;;;;;;4940601;29;20500;-80
2022/05/30 11:20:00;;;;;;;3.65;1.50;;;19.70;46.50;;;;;;4954177;29;20034;-78
2022/05/30 11:22:31;;;;;;;;;;;18.90;48.20;;;;;;5035905;28;20089;-76
2022/05/30 11:24:57;;;;;;;2.20;1.23;;;18.70;48.60;;;;;;5038978;28;19911;-78
2022/05/30 11:27:41;;;;;;;1.88;0.90;;;18.60;49.10;;;;;;5034459;28;20148;-79
2022/05/30 11:30:25;;;;;;;1.45;0.85;;;18.40;49.40;;;;;;5035053;28;20498;-78
2022/05/30 11:33:23;;;;;;;2.33;0.65;;;18.50;49.20;;;;;;5019548;28;20036;-78
2022/05/30 11:36:10;;;;;;;2.05;1.00;;;19.30;49.00;;;;;;5038471;28;20364;-77
2022/05/30 11:38:57;;;;;;;3.05;1.30;;;19.50;47.50;;;;;;5039341;28;20412;-79
2022/05/30 11:41:26;;;;;;;1.67;1.08;;;19.40;48.10;;;;;;5039183;28;20030;-78
2022/05/30 11:44:10;;;;;;;1.20;0.98;;;19.10;48.20;;;;;;5046417;28;20041;-79
2022/05/30 11:46:54;;;;;;;3.75;1.38;;;18.50;49.70;;;;;;5020752;28;20034;-80
2022/05/30 11:49:44;;;;;;;2.42;0.90;;;18.10;50.90;;;;;;5040618;28;20026;-77
2022/05/30 11:52:26;;;;;;;3.10;1.73;;;18.00;51.50;;;;;;5036822;28;20083;-77
2022/05/30 11:54:52;;;;;;;2.25;1.13;;;18.10;50.30;;;;;;5037220;28;20041;-79
2022/05/30 11:57:33;;;;;;;1.27;0.93;;;18.40;50.30;;;;;;5075012;22;20044;-80
2022/05/30 12:00:04;;;;;;;1.63;1.10;;;18.40;50.00;;;;;;5072593;28;20089;-80
2022/05/30 12:03:09;;;;;;;2.13;1.17;;;18.50;50.20;;;;;;5113024;28;20046;-80
2022/05/30 12:05:53;;;;;;;1.38;0.80;;;18.50;50.30;;;;;;5085535;28;20024;-81
2022/05/30 12:08:41;;;;;;;1.42;1.00;;;18.70;50.20;;;;;;5091933;28;20021;-79
2022/05/30 12:11:17;;;;;;;1.00;0.90;;;19.20;48.60;;;;;;5061952;28;20013;-79
2022/05/30 12:14:28;;;;;;;1.83;0.93;;;19.50;46.90;;;;;;5064977;28;20427;-79
2022/05/30 12:17:11;;;;;;;1.90;0.90;;;19.70;46.70;;;;;;4944809;29;20070;-79
2022/05/30 12:25:38;;;;;;;1.23;1.02;;;21.00;44.00;;;;;;5059640;28;20032;-80
2022/05/30 12:28:06;;;;;;;4.18;1.40;;;20.60;45.10;;;;;;5059689;28;20025;-80
2022/05/30 12:30:35;;;;;;;2.55;0.93;;;20.20;45.10;;;;;;5069077;28;20075;-80
2022/05/30 12:33:21;;;;;;;1.10;0.70;;;20.00;46.30;;;;;;5057716;28;20021;-80
2022/05/30 12:35:48;;;;;;;1.40;0.70;;;19.90;46.50;;;;;;5058167;28;20053;-80
2022/05/30 12:38:16;;;;;;;0.70;0.60;;;19.70;46.50;;;;;;5058327;28;20025;-80
2022/05/30 12:40:44;;;;;;;1.63;0.95;;;19.70;46.70;;;;;;5057778;28;20028;-80
2022/05/30 12:43:27;;;;;;;1.73;0.80;;;19.60;46.70;;;;;;5058095;28;20017;-79
2022/05/30 12:45:55;;;;;;;0.70;0.55;;;19.60;46.50;;;;;;5058010;28;20021;-79
2022/05/30 12:48:31;;;;;;;2.33;0.75;;;19.60;46.60;;;;;;5056987;28;20029;-79
2022/05/30 12:51:01;;;;;;;1.60;1.20;;;19.70;46.50;;;;;;5057640;28;20021;-80
2022/05/30 12:53:55;;;;;;;1.15;0.80;;;19.70;45.30;;;;;;5040983;28;20024;-81
2022/05/30 12:56:41;;;;;;;2.78;0.90;;;19.50;45.40;;;;;;5040891;28;20025;-80
2022/05/30 12:59:19;;;;;;;2.15;1.25;;;19.40;45.60;;;;;;5047715;28;20056;-80
2022/05/30 13:01:44;;;;;;;1.88;1.00;;;19.60;45.30;;;;;;5079278;28;20032;-80
2022/05/30 13:04:22;;;;;;;0.98;0.90;;;19.70;44.90;;;;;;5071136;28;20031;-80
2022/05/30 13:06:57;;;;;;;0.65;0.57;;;19.80;45.00;;;;;;5067360;28;20136;-80
2022/05/30 13:09:36;;;;;;;0.70;0.70;;;21.00;44.80;;;;;;5067565;28;20028;-80
2022/05/30 13:12:10;;;;;;;1.08;0.80;;;21.50;43.20;;;;;;5066472;28;20081;-80
2022/05/30 13:15:00;;;;;;;2.40;0.90;;;21.50;42.30;;;;;;5049791;28;20032;-80
2022/05/30 13:17:51;;;;;;;1.98;0.70;;;21.10;42.60;;;;;;5065909;28;20096;-80
2022/05/30 13:20:21;;;;;;;1.10;0.95;;;20.50;43.90;;;;;;5065265;28;20079;-80
2022/05/30 13:22:51;;;;;;;1.20;1.10;;;19.90;45.00;;;;;;5046809;28;20018;-79
2022/05/30 13:25:27;;;;;;;0.50;0.50;;;19.30;46.00;;;;;;5029343;28;20026;-80
2022/05/30 13:27:53;;;;;;;1.90;1.05;;;19.00;46.90;;;;;;5060564;28;20113;-80
2022/05/30 13:30:26;;;;;;;3.20;1.20;;;18.80;47.00;;;;;;5078203;28;20473;-80
2022/05/30 13:32:52;;;;;;;1.23;0.65;;;18.60;47.60;;;;;;5086869;28;20024;-80
2022/05/30 13:35:19;;;;;;;1.10;0.70;;;18.60;48.90;;;;;;5080215;28;20020;-80
2022/05/30 13:37:49;;;;;;;1.00;0.60;;;18.60;48.60;;;;;;5078823;28;20021;-81
2022/05/30 13:40:18;;;;;;;3.85;1.00;;;18.60;48.70;;;;;;5059077;28;20055;-80
2022/05/30 13:42:58;;;;;;;1.25;1.05;;;18.80;48.30;;;;;;5058794;28;20044;-80